sensor_id;sensor_type;location;lat;lon;timestamp;P1;durP1;ratioP1;P2;durP2;ratioP2
68475;SDS011;55464;48.266;14.188;2022-12-29T00:01:26;15.93;;;7.85;;
68475;SDS011;55464;48.266;14.188;2022-12-29T00:03:51;14.55;;;7.97;;
68475;SDS011;55464;48.266;14.188;2022-12-29T00:06:17;15.15;;;8.90;;
68475;SDS011;55464;48.266;14.188;2022-12-29T00:08:43;18.63;;;8.88;;
68475;SDS011;55464;48.266;14.188;2022-12-29T00:11:09;11.45;;;7.10;;
68475;SDS011;55464;48.266;14.188;2022-12-29T00:13:36;16.02;;;9.27;;
68475;SDS011;55464;48.266;14.188;2022-12-29T00:16:20;15.70;;;9.02;;
68475;SDS011;55464;48.266;14.188;2022-12-29T00:18:46;22.05;;;11.10;;
68475;SDS011;55464;48.266;14.188;2022-12-29T00:21:16;14.75;;;9.35;;
68475;SDS011;55464;48.266;14.188;2022-12-29T00:24:01;17.23;;;9.07;;
68475;SDS011;55464;48.266;14.188;2022-12-29T00:26:33;20.42;;;9.60;;
68475;SDS011;55464;48.266;14.188;2022-12-29T00:29:17;14.50;;;8.95;;
68475;SDS011;55464;48.266;14.188;2022-12-29T00:32:02;14.60;;;8.73;;
68475;SDS011;55464;48.266;14.188;2022-12-29T00:34:47;16.63;;;9.13;;
68475;SDS011;55464;48.266;14.188;2022-12-29T00:37:32;15.05;;;8.15;;
68475;SDS011;55464;48.266;14.188;2022-12-29T00:40:16;18.63;;;9.45;;
68475;SDS011;55464;48.266;14.188;2022-12-29T00:43:00;19.65;;;9.43;;
68475;SDS011;55464;48.266;14.188;2022-12-29T00:45:44;16.85;;;8.98;;
68475;SDS011;55464;48.266;14.188;2022-12-29T00:48:10;17.92;;;9.40;;
68475;SDS011;55464;48.266;14.188;2022-12-29T00:50:36;17.63;;;10.02;;
68475;SDS011;55464;48.266;14.188;2022-12-29T00:53:01;19.20;;;10.18;;
68475;SDS011;55464;48.266;14.188;2022-12-29T00:55:27;17.23;;;9.90;;
68475;SDS011;55464;48.266;14.188;2022-12-29T00:57:53;16.83;;;9.82;;
68475;SDS011;55464;48.266;14.188;2022-12-29T01:00:18;18.75;;;10.05;;
68475;SDS011;55464;48.266;14.188;2022-12-29T01:02:44;15.73;;;10.30;;
68475;SDS011;55464;48.266;14.188;2022-12-29T01:05:10;17.20;;;9.77;;
68475;SDS011;55464;48.266;14.188;2022-12-29T01:07:35;15.27;;;9.60;;
68475;SDS011;55464;48.266;14.188;2022-12-29T01:10:01;19.13;;;9.88;;
68475;SDS011;55464;48.266;14.188;2022-12-29T01:12:35;19.65;;;10.18;;
68475;SDS011;55464;48.266;14.188;2022-12-29T01:15:08;17.63;;;9.93;;
68475;SDS011;55464;48.266;14.188;2022-12-29T01:17:35;17.05;;;9.90;;
68475;SDS011;55464;48.266;14.188;2022-12-29T01:20:01;16.23;;;9.90;;
68475;SDS011;55464;48.266;14.188;2022-12-29T01:22:28;17.63;;;10.23;;
68475;SDS011;55464;48.266;14.188;2022-12-29T01:24:53;17.23;;;9.73;;
68475;SDS011;55464;48.266;14.188;2022-12-29T01:27:19;14.43;;;9.48;;
68475;SDS011;55464;48.266;14.188;2022-12-29T01:29:45;17.67;;;9.95;;
68475;SDS011;55464;48.266;14.188;2022-12-29T01:32:10;16.45;;;9.52;;
68475;SDS011;55464;48.266;14.188;2022-12-29T01:34:36;19.50;;;9.88;;
68475;SDS011;55464;48.266;14.188;2022-12-29T01:37:01;13.48;;;8.50;;
68475;SDS011;55464;48.266;14.188;2022-12-29T01:39:27;18.63;;;8.65;;
68475;SDS011;55464;48.266;14.188;2022-12-29T01:41:53;16.55;;;8.77;;
68475;SDS011;55464;48.266;14.188;2022-12-29T01:47:25;14.90;;;8.00;;
68475;SDS011;55464;48.266;14.188;2022-12-29T01:49:59;12.50;;;7.22;;
68475;SDS011;55464;48.266;14.188;2022-12-29T01:52:30;18.08;;;7.82;;
68475;SDS011;55464;48.266;14.188;2022-12-29T01:55:00;14.65;;;7.45;;
68475;SDS011;55464;48.266;14.188;2022-12-29T01:57:30;14.77;;;7.18;;
68475;SDS011;55464;48.266;14.188;2022-12-29T02:00:06;9.77;;;7.13;;
68475;SDS011;55464;48.266;14.188;2022-12-29T02:02:34;12.05;;;6.60;;
68475;SDS011;55464;48.266;14.188;2022-12-29T02:05:03;11.63;;;6.90;;
68475;SDS011;55464;48.266;14.188;2022-12-29T02:07:34;10.77;;;6.55;;
68475;SDS011;55464;48.266;14.188;2022-12-29T02:10:00;11.75;;;6.68;;
68475;SDS011;55464;48.266;14.188;2022-12-29T02:12:26;11.43;;;6.55;;
68475;SDS011;55464;48.266;14.188;2022-12-29T02:14:54;14.50;;;6.68;;
68475;SDS011;55464;48.266;14.188;2022-12-29T02:33:57;15.07;;;7.88;;
68475;SDS011;55464;48.266;14.188;2022-12-29T02:45:19;12.73;;;8.30;;
68475;SDS011;55464;48.266;14.188;2022-12-29T02:51:03;15.50;;;8.18;;
68475;SDS011;55464;48.266;14.188;2022-12-29T02:53:34;13.85;;;8.05;;
68475;SDS011;55464;48.266;14.188;2022-12-29T02:56:19;13.85;;;8.80;;
68475;SDS011;55464;48.266;14.188;2022-12-29T02:58:46;15.98;;;9.10;;
68475;SDS011;55464;48.266;14.188;2022-12-29T03:11:33;15.25;;;8.55;;
68475;SDS011;55464;48.266;14.188;2022-12-29T03:14:28;16.63;;;8.88;;
68475;SDS011;55464;48.266;14.188;2022-12-29T03:20:12;16.67;;;8.00;;
68475;SDS011;55464;48.266;14.188;2022-12-29T03:23:00;18.30;;;9.20;;
68475;SDS011;55464;48.266;14.188;2022-12-29T03:25:43;17.02;;;9.00;;
68475;SDS011;55464;48.266;14.188;2022-12-29T03:28:12;14.50;;;8.02;;
68475;SDS011;55464;48.266;14.188;2022-12-29T03:30:43;13.20;;;7.45;;
68475;SDS011;55464;48.266;14.188;2022-12-29T03:33:12;15.32;;;8.52;;
68475;SDS011;55464;48.266;14.188;2022-12-29T03:35:45;16.33;;;9.07;;
68475;SDS011;55464;48.266;14.188;2022-12-29T03:38:24;13.68;;;8.90;;
68475;SDS011;55464;48.266;14.188;2022-12-29T03:40:56;14.80;;;7.95;;
68475;SDS011;55464;48.266;14.188;2022-12-29T03:43:24;14.52;;;8.20;;
68475;SDS011;55464;48.266;14.188;2022-12-29T03:45:50;13.05;;;7.07;;
68475;SDS011;55464;48.266;14.188;2022-12-29T03:48:16;16.55;;;7.97;;
68475;SDS011;55464;48.266;14.188;2022-12-29T03:50:42;15.48;;;7.65;;
68475;SDS011;55464;48.266;14.188;2022-12-29T03:53:07;16.17;;;8.27;;
68475;SDS011;55464;48.266;14.188;2022-12-29T03:55:33;17.75;;;7.88;;
68475;SDS011;55464;48.266;14.188;2022-12-29T03:57:59;14.40;;;7.60;;
68475;SDS011;55464;48.266;14.188;2022-12-29T04:00:24;12.23;;;7.63;;
68475;SDS011;55464;48.266;14.188;2022-12-29T04:02:50;12.02;;;7.60;;
68475;SDS011;55464;48.266;14.188;2022-12-29T04:05:16;15.45;;;7.60;;
68475;SDS011;55464;48.266;14.188;2022-12-29T04:07:41;11.38;;;7.53;;
68475;SDS011;55464;48.266;14.188;2022-12-29T04:10:07;15.63;;;8.38;;
68475;SDS011;55464;48.266;14.188;2022-12-29T04:12:33;14.85;;;7.80;;
68475;SDS011;55464;48.266;14.188;2022-12-29T04:14:59;13.98;;;9.00;;
68475;SDS011;55464;48.266;14.188;2022-12-29T04:17:24;12.13;;;8.27;;
68475;SDS011;55464;48.266;14.188;2022-12-29T04:19:50;14.27;;;6.90;;
68475;SDS011;55464;48.266;14.188;2022-12-29T04:22:16;11.88;;;7.55;;
68475;SDS011;55464;48.266;14.188;2022-12-29T04:24:41;11.85;;;6.78;;
68475;SDS011;55464;48.266;14.188;2022-12-29T04:27:07;20.88;;;7.15;;
68475;SDS011;55464;48.266;14.188;2022-12-29T04:29:33;12.10;;;6.65;;
68475;SDS011;55464;48.266;14.188;2022-12-29T04:31:59;10.73;;;7.03;;
68475;SDS011;55464;48.266;14.188;2022-12-29T04:34:24;9.25;;;6.25;;
68475;SDS011;55464;48.266;14.188;2022-12-29T04:36:50;12.25;;;6.47;;
68475;SDS011;55464;48.266;14.188;2022-12-29T04:39:15;9.80;;;6.10;;
68475;SDS011;55464;48.266;14.188;2022-12-29T04:41:41;13.98;;;6.97;;
68475;SDS011;55464;48.266;14.188;2022-12-29T04:44:07;9.85;;;6.45;;
68475;SDS011;55464;48.266;14.188;2022-12-29T04:46:32;9.68;;;6.63;;
68475;SDS011;55464;48.266;14.188;2022-12-29T04:48:58;14.38;;;7.45;;
68475;SDS011;55464;48.266;14.188;2022-12-29T04:51:25;10.68;;;6.53;;
68475;SDS011;55464;48.266;14.188;2022-12-29T04:53:51;10.88;;;7.63;;
68475;SDS011;55464;48.266;14.188;2022-12-29T04:56:16;14.57;;;6.57;;
68475;SDS011;55464;48.266;14.188;2022-12-29T04:58:42;14.68;;;7.78;;
68475;SDS011;55464;48.266;14.188;2022-12-29T05:01:08;22.52;;;9.52;;
68475;SDS011;55464;48.266;14.188;2022-12-29T05:03:33;18.77;;;8.52;;
68475;SDS011;55464;48.266;14.188;2022-12-29T05:05:59;21.67;;;10.38;;
68475;SDS011;55464;48.266;14.188;2022-12-29T05:08:25;20.65;;;9.57;;
68475;SDS011;55464;48.266;14.188;2022-12-29T05:10:50;23.58;;;9.90;;
68475;SDS011;55464;48.266;14.188;2022-12-29T05:13:16;29.02;;;10.88;;
68475;SDS011;55464;48.266;14.188;2022-12-29T05:15:47;29.13;;;12.32;;
68475;SDS011;55464;48.266;14.188;2022-12-29T05:18:16;30.40;;;11.98;;
68475;SDS011;55464;48.266;14.188;2022-12-29T05:20:42;26.33;;;12.85;;
68475;SDS011;55464;48.266;14.188;2022-12-29T05:23:08;27.90;;;13.30;;
68475;SDS011;55464;48.266;14.188;2022-12-29T05:25:34;26.02;;;12.02;;
68475;SDS011;55464;48.266;14.188;2022-12-29T05:27:59;22.60;;;11.68;;
68475;SDS011;55464;48.266;14.188;2022-12-29T05:30:25;23.85;;;10.80;;
68475;SDS011;55464;48.266;14.188;2022-12-29T05:32:50;22.23;;;10.30;;
68475;SDS011;55464;48.266;14.188;2022-12-29T05:35:16;21.38;;;10.38;;
68475;SDS011;55464;48.266;14.188;2022-12-29T05:37:42;22.65;;;10.43;;
68475;SDS011;55464;48.266;14.188;2022-12-29T05:40:08;20.80;;;9.68;;
68475;SDS011;55464;48.266;14.188;2022-12-29T05:42:34;15.63;;;9.38;;
68475;SDS011;55464;48.266;14.188;2022-12-29T05:44:59;18.92;;;9.70;;
68475;SDS011;55464;48.266;14.188;2022-12-29T05:47:25;22.40;;;9.27;;
68475;SDS011;55464;48.266;14.188;2022-12-29T05:49:51;16.90;;;8.85;;
68475;SDS011;55464;48.266;14.188;2022-12-29T05:52:16;20.13;;;9.55;;
68475;SDS011;55464;48.266;14.188;2022-12-29T05:54:42;16.48;;;8.43;;
68475;SDS011;55464;48.266;14.188;2022-12-29T05:57:08;16.20;;;7.90;;
68475;SDS011;55464;48.266;14.188;2022-12-29T05:59:34;20.42;;;8.27;;
68475;SDS011;55464;48.266;14.188;2022-12-29T06:02:00;15.02;;;7.97;;
68475;SDS011;55464;48.266;14.188;2022-12-29T06:04:26;15.82;;;8.90;;
68475;SDS011;55464;48.266;14.188;2022-12-29T06:06:51;16.77;;;9.07;;
68475;SDS011;55464;48.266;14.188;2022-12-29T06:09:17;14.15;;;7.85;;
68475;SDS011;55464;48.266;14.188;2022-12-29T06:11:42;14.00;;;8.68;;
68475;SDS011;55464;48.266;14.188;2022-12-29T06:14:08;16.35;;;8.18;;
68475;SDS011;55464;48.266;14.188;2022-12-29T06:16:34;13.45;;;7.80;;
68475;SDS011;55464;48.266;14.188;2022-12-29T06:19:01;11.93;;;7.50;;
68475;SDS011;55464;48.266;14.188;2022-12-29T06:21:26;15.45;;;7.63;;
68475;SDS011;55464;48.266;14.188;2022-12-29T06:23:52;11.05;;;7.15;;
68475;SDS011;55464;48.266;14.188;2022-12-29T06:26:18;17.08;;;8.25;;
68475;SDS011;55464;48.266;14.188;2022-12-29T06:28:44;14.32;;;7.68;;
68475;SDS011;55464;48.266;14.188;2022-12-29T06:31:10;11.70;;;7.30;;
68475;SDS011;55464;48.266;14.188;2022-12-29T06:33:36;12.27;;;7.35;;
68475;SDS011;55464;48.266;14.188;2022-12-29T06:36:02;11.82;;;6.97;;
68475;SDS011;55464;48.266;14.188;2022-12-29T06:38:28;10.82;;;6.80;;
68475;SDS011;55464;48.266;14.188;2022-12-29T06:40:54;11.68;;;7.05;;
68475;SDS011;55464;48.266;14.188;2022-12-29T06:43:19;11.15;;;6.35;;
68475;SDS011;55464;48.266;14.188;2022-12-29T06:45:45;13.20;;;6.22;;
68475;SDS011;55464;48.266;14.188;2022-12-29T06:48:11;10.40;;;6.22;;
68475;SDS011;55464;48.266;14.188;2022-12-29T06:50:36;11.00;;;5.78;;
68475;SDS011;55464;48.266;14.188;2022-12-29T06:53:02;8.52;;;5.88;;
68475;SDS011;55464;48.266;14.188;2022-12-29T06:55:28;10.85;;;5.72;;
68475;SDS011;55464;48.266;14.188;2022-12-29T06:57:55;9.00;;;5.47;;
68475;SDS011;55464;48.266;14.188;2022-12-29T07:00:22;10.30;;;6.05;;
68475;SDS011;55464;48.266;14.188;2022-12-29T07:02:48;9.60;;;5.30;;
68475;SDS011;55464;48.266;14.188;2022-12-29T07:05:14;11.27;;;6.35;;
68475;SDS011;55464;48.266;14.188;2022-12-29T07:07:39;10.77;;;6.35;;
68475;SDS011;55464;48.266;14.188;2022-12-29T07:10:05;10.55;;;6.10;;
68475;SDS011;55464;48.266;14.188;2022-12-29T07:12:31;8.73;;;5.30;;
68475;SDS011;55464;48.266;14.188;2022-12-29T07:14:57;12.25;;;6.53;;
68475;SDS011;55464;48.266;14.188;2022-12-29T07:17:22;10.32;;;6.18;;
68475;SDS011;55464;48.266;14.188;2022-12-29T07:19:48;12.45;;;6.00;;
68475;SDS011;55464;48.266;14.188;2022-12-29T07:22:13;12.73;;;6.20;;
68475;SDS011;55464;48.266;14.188;2022-12-29T07:24:39;10.70;;;6.45;;
68475;SDS011;55464;48.266;14.188;2022-12-29T07:27:05;11.25;;;6.47;;
68475;SDS011;55464;48.266;14.188;2022-12-29T07:29:31;15.32;;;6.82;;
68475;SDS011;55464;48.266;14.188;2022-12-29T07:31:56;14.27;;;6.47;;
68475;SDS011;55464;48.266;14.188;2022-12-29T07:34:22;13.32;;;7.65;;
68475;SDS011;55464;48.266;14.188;2022-12-29T07:36:47;11.63;;;6.78;;
68475;SDS011;55464;48.266;14.188;2022-12-29T07:39:13;18.08;;;8.50;;
68475;SDS011;55464;48.266;14.188;2022-12-29T07:41:39;10.70;;;7.50;;
68475;SDS011;55464;48.266;14.188;2022-12-29T07:44:04;15.07;;;8.18;;
68475;SDS011;55464;48.266;14.188;2022-12-29T07:46:30;12.05;;;7.75;;
68475;SDS011;55464;48.266;14.188;2022-12-29T07:48:55;12.52;;;7.57;;
68475;SDS011;55464;48.266;14.188;2022-12-29T07:51:21;14.85;;;8.07;;
68475;SDS011;55464;48.266;14.188;2022-12-29T07:53:47;11.57;;;7.18;;
68475;SDS011;55464;48.266;14.188;2022-12-29T07:56:12;12.60;;;6.78;;
68475;SDS011;55464;48.266;14.188;2022-12-29T07:58:38;9.25;;;5.90;;
68475;SDS011;55464;48.266;14.188;2022-12-29T08:01:04;11.23;;;6.38;;
68475;SDS011;55464;48.266;14.188;2022-12-29T08:03:30;16.77;;;6.93;;
68475;SDS011;55464;48.266;14.188;2022-12-29T08:05:56;12.77;;;6.80;;
68475;SDS011;55464;48.266;14.188;2022-12-29T08:08:22;13.40;;;6.85;;
68475;SDS011;55464;48.266;14.188;2022-12-29T08:10:47;12.70;;;7.45;;
68475;SDS011;55464;48.266;14.188;2022-12-29T08:13:13;9.52;;;6.00;;
68475;SDS011;55464;48.266;14.188;2022-12-29T08:15:39;15.75;;;7.20;;
68475;SDS011;55464;48.266;14.188;2022-12-29T08:18:04;11.48;;;6.45;;
68475;SDS011;55464;48.266;14.188;2022-12-29T08:20:30;12.60;;;6.15;;
68475;SDS011;55464;48.266;14.188;2022-12-29T08:22:57;10.23;;;6.20;;
68475;SDS011;55464;48.266;14.188;2022-12-29T08:25:22;12.88;;;6.20;;
68475;SDS011;55464;48.266;14.188;2022-12-29T08:27:48;11.90;;;6.63;;
68475;SDS011;55464;48.266;14.188;2022-12-29T08:30:13;9.18;;;6.30;;
68475;SDS011;55464;48.266;14.188;2022-12-29T08:32:39;11.07;;;6.20;;
68475;SDS011;55464;48.266;14.188;2022-12-29T08:35:05;8.38;;;6.03;;
68475;SDS011;55464;48.266;14.188;2022-12-29T08:37:32;13.52;;;6.82;;
68475;SDS011;55464;48.266;14.188;2022-12-29T08:39:58;15.15;;;7.32;;
68475;SDS011;55464;48.266;14.188;2022-12-29T08:42:25;11.45;;;6.60;;
68475;SDS011;55464;48.266;14.188;2022-12-29T08:44:55;11.95;;;6.57;;
68475;SDS011;55464;48.266;14.188;2022-12-29T08:47:24;10.45;;;7.20;;
68475;SDS011;55464;48.266;14.188;2022-12-29T08:49:50;12.88;;;7.15;;
68475;SDS011;55464;48.266;14.188;2022-12-29T08:52:16;12.05;;;7.47;;
68475;SDS011;55464;48.266;14.188;2022-12-29T08:54:42;18.70;;;8.18;;
68475;SDS011;55464;48.266;14.188;2022-12-29T08:57:07;13.75;;;7.65;;
68475;SDS011;55464;48.266;14.188;2022-12-29T08:59:33;16.10;;;8.73;;
68475;SDS011;55464;48.266;14.188;2022-12-29T09:01:58;15.00;;;8.50;;
68475;SDS011;55464;48.266;14.188;2022-12-29T09:04:25;13.95;;;7.65;;
68475;SDS011;55464;48.266;14.188;2022-12-29T09:06:52;13.30;;;7.75;;
68475;SDS011;55464;48.266;14.188;2022-12-29T09:09:18;14.07;;;8.80;;
68475;SDS011;55464;48.266;14.188;2022-12-29T09:11:43;17.42;;;10.95;;
68475;SDS011;55464;48.266;14.188;2022-12-29T09:14:09;16.77;;;12.85;;
68475;SDS011;55464;48.266;14.188;2022-12-29T09:16:35;15.50;;;9.85;;
68475;SDS011;55464;48.266;14.188;2022-12-29T09:19:01;14.50;;;7.47;;
68475;SDS011;55464;48.266;14.188;2022-12-29T09:21:27;14.50;;;7.72;;
68475;SDS011;55464;48.266;14.188;2022-12-29T09:23:53;11.90;;;7.05;;
68475;SDS011;55464;48.266;14.188;2022-12-29T09:26:19;18.85;;;9.48;;
68475;SDS011;55464;48.266;14.188;2022-12-29T09:28:44;14.18;;;8.00;;
68475;SDS011;55464;48.266;14.188;2022-12-29T09:31:11;10.98;;;7.35;;
68475;SDS011;55464;48.266;14.188;2022-12-29T09:33:36;12.50;;;6.72;;
68475;SDS011;55464;48.266;14.188;2022-12-29T09:36:02;11.05;;;7.28;;
68475;SDS011;55464;48.266;14.188;2022-12-29T09:38:28;13.93;;;7.45;;
68475;SDS011;55464;48.266;14.188;2022-12-29T09:40:56;13.18;;;7.57;;
68475;SDS011;55464;48.266;14.188;2022-12-29T09:46:54;16.08;;;7.53;;
68475;SDS011;55464;48.266;14.188;2022-12-29T09:51:47;11.77;;;7.15;;
68475;SDS011;55464;48.266;14.188;2022-12-29T09:54:31;12.10;;;6.95;;
68475;SDS011;55464;48.266;14.188;2022-12-29T09:56:58;12.38;;;6.70;;
68475;SDS011;55464;48.266;14.188;2022-12-29T09:59:25;13.52;;;6.97;;
68475;SDS011;55464;48.266;14.188;2022-12-29T10:02:04;15.88;;;6.30;;
68475;SDS011;55464;48.266;14.188;2022-12-29T10:04:43;13.95;;;7.65;;
68475;SDS011;55464;48.266;14.188;2022-12-29T10:10:30;13.65;;;7.30;;
68475;SDS011;55464;48.266;14.188;2022-12-29T10:16:01;15.05;;;8.07;;
68475;SDS011;55464;48.266;14.188;2022-12-29T10:24:27;13.18;;;7.88;;
68475;SDS011;55464;48.266;14.188;2022-12-29T10:26:55;13.02;;;8.02;;
68475;SDS011;55464;48.266;14.188;2022-12-29T10:29:33;12.90;;;8.20;;
68475;SDS011;55464;48.266;14.188;2022-12-29T10:34:44;15.93;;;8.27;;
68475;SDS011;55464;48.266;14.188;2022-12-29T10:37:17;12.52;;;8.02;;
68475;SDS011;55464;48.266;14.188;2022-12-29T10:39:56;15.25;;;8.50;;
68475;SDS011;55464;48.266;14.188;2022-12-29T10:42:35;15.23;;;8.90;;
68475;SDS011;55464;48.266;14.188;2022-12-29T10:45:05;16.35;;;9.07;;
68475;SDS011;55464;48.266;14.188;2022-12-29T10:47:38;13.63;;;8.68;;
68475;SDS011;55464;48.266;14.188;2022-12-29T10:50:16;16.75;;;8.60;;
68475;SDS011;55464;48.266;14.188;2022-12-29T10:52:41;19.17;;;8.45;;
68475;SDS011;55464;48.266;14.188;2022-12-29T10:55:08;13.65;;;8.32;;
68475;SDS011;55464;48.266;14.188;2022-12-29T10:57:43;11.98;;;8.15;;
68475;SDS011;55464;48.266;14.188;2022-12-29T11:00:14;18.10;;;8.52;;
68475;SDS011;55464;48.266;14.188;2022-12-29T11:08:11;16.77;;;8.18;;
68475;SDS011;55464;48.266;14.188;2022-12-29T11:10:42;16.85;;;8.45;;
68475;SDS011;55464;48.266;14.188;2022-12-29T11:13:16;15.02;;;7.85;;
68475;SDS011;55464;48.266;14.188;2022-12-29T11:15:44;15.18;;;8.18;;
68475;SDS011;55464;48.266;14.188;2022-12-29T11:18:32;15.57;;;8.73;;
68475;SDS011;55464;48.266;14.188;2022-12-29T11:21:03;12.23;;;8.18;;
68475;SDS011;55464;48.266;14.188;2022-12-29T11:28:36;12.55;;;6.22;;
68475;SDS011;55464;48.266;14.188;2022-12-29T11:31:03;10.25;;;6.57;;
68475;SDS011;55464;48.266;14.188;2022-12-29T11:33:30;11.15;;;6.60;;
68475;SDS011;55464;48.266;14.188;2022-12-29T11:36:05;13.32;;;6.65;;
68475;SDS011;55464;48.266;14.188;2022-12-29T11:38:34;9.27;;;6.63;;
68475;SDS011;55464;48.266;14.188;2022-12-29T11:41:02;12.00;;;6.45;;
68475;SDS011;55464;48.266;14.188;2022-12-29T11:43:31;10.27;;;6.10;;
68475;SDS011;55464;48.266;14.188;2022-12-29T11:46:00;13.30;;;6.30;;
68475;SDS011;55464;48.266;14.188;2022-12-29T11:48:29;13.57;;;7.40;;
68475;SDS011;55464;48.266;14.188;2022-12-29T11:50:58;13.10;;;5.90;;
68475;SDS011;55464;48.266;14.188;2022-12-29T11:53:33;11.95;;;6.22;;
68475;SDS011;55464;48.266;14.188;2022-12-29T11:56:20;11.85;;;6.07;;
68475;SDS011;55464;48.266;14.188;2022-12-29T11:58:56;11.05;;;5.82;;
68475;SDS011;55464;48.266;14.188;2022-12-29T12:01:30;10.70;;;5.80;;
68475;SDS011;55464;48.266;14.188;2022-12-29T12:04:03;10.13;;;6.00;;
68475;SDS011;55464;48.266;14.188;2022-12-29T12:06:43;8.70;;;5.55;;
68475;SDS011;55464;48.266;14.188;2022-12-29T12:09:36;7.47;;;4.72;;
68475;SDS011;55464;48.266;14.188;2022-12-29T12:14:55;12.25;;;5.20;;
68475;SDS011;55464;48.266;14.188;2022-12-29T12:20:04;10.15;;;6.47;;
68475;SDS011;55464;48.266;14.188;2022-12-29T12:22:43;11.47;;;6.17;;
68475;SDS011;55464;48.266;14.188;2022-12-29T12:25:34;12.43;;;6.53;;
68475;SDS011;55464;48.266;14.188;2022-12-29T12:28:13;12.05;;;5.90;;
68475;SDS011;55464;48.266;14.188;2022-12-29T12:31:02;11.27;;;6.03;;
68475;SDS011;55464;48.266;14.188;2022-12-29T12:33:41;16.20;;;7.00;;
68475;SDS011;55464;48.266;14.188;2022-12-29T12:39:02;12.20;;;6.65;;
68475;SDS011;55464;48.266;14.188;2022-12-29T13:00:48;16.48;;;6.35;;
68475;SDS011;55464;48.266;14.188;2022-12-29T13:11:47;12.43;;;6.93;;
68475;SDS011;55464;48.266;14.188;2022-12-29T13:14:40;18.88;;;7.65;;
68475;SDS011;55464;48.266;14.188;2022-12-29T13:25:47;16.98;;;8.82;;
68475;SDS011;55464;48.266;14.188;2022-12-29T13:40:55;17.83;;;7.88;;
68475;SDS011;55464;48.266;14.188;2022-12-29T13:43:25;18.80;;;8.65;;
68475;SDS011;55464;48.266;14.188;2022-12-29T13:46:12;15.80;;;7.63;;
68475;SDS011;55464;48.266;14.188;2022-12-29T13:48:49;16.67;;;9.38;;
68475;SDS011;55464;48.266;14.188;2022-12-29T13:51:27;15.25;;;7.85;;
68475;SDS011;55464;48.266;14.188;2022-12-29T13:59:06;17.90;;;7.85;;
68475;SDS011;55464;48.266;14.188;2022-12-29T14:05:04;15.25;;;8.40;;
68475;SDS011;55464;48.266;14.188;2022-12-29T14:08:04;13.40;;;7.80;;
68475;SDS011;55464;48.266;14.188;2022-12-29T14:10:45;18.17;;;8.23;;
68475;SDS011;55464;48.266;14.188;2022-12-29T14:16:04;14.90;;;7.88;;
68475;SDS011;55464;48.266;14.188;2022-12-29T14:18:31;20.20;;;8.05;;
68475;SDS011;55464;48.266;14.188;2022-12-29T14:21:17;17.55;;;7.70;;
68475;SDS011;55464;48.266;14.188;2022-12-29T14:23:48;17.90;;;7.63;;
68475;SDS011;55464;48.266;14.188;2022-12-29T14:28:47;14.15;;;8.20;;
68475;SDS011;55464;48.266;14.188;2022-12-29T14:33:39;15.07;;;7.70;;
68475;SDS011;55464;48.266;14.188;2022-12-29T14:36:19;16.88;;;10.07;;
68475;SDS011;55464;48.266;14.188;2022-12-29T14:38:58;20.58;;;9.88;;
68475;SDS011;55464;48.266;14.188;2022-12-29T14:41:26;15.20;;;8.38;;
68475;SDS011;55464;48.266;14.188;2022-12-29T14:44:02;13.35;;;8.00;;
68475;SDS011;55464;48.266;14.188;2022-12-29T14:49:20;10.68;;;6.35;;
68475;SDS011;55464;48.266;14.188;2022-12-29T14:54:44;15.43;;;7.65;;
68475;SDS011;55464;48.266;14.188;2022-12-29T14:57:18;13.77;;;7.40;;
68475;SDS011;55464;48.266;14.188;2022-12-29T14:59:46;12.48;;;6.90;;
68475;SDS011;55464;48.266;14.188;2022-12-29T15:02:19;15.07;;;6.57;;
68475;SDS011;55464;48.266;14.188;2022-12-29T15:04:47;13.85;;;7.45;;
68475;SDS011;55464;48.266;14.188;2022-12-29T15:07:13;13.40;;;7.35;;
68475;SDS011;55464;48.266;14.188;2022-12-29T15:09:43;13.48;;;7.40;;
68475;SDS011;55464;48.266;14.188;2022-12-29T15:14:59;15.75;;;8.13;;
68475;SDS011;55464;48.266;14.188;2022-12-29T15:17:27;12.35;;;6.82;;
68475;SDS011;55464;48.266;14.188;2022-12-29T15:20:00;14.32;;;8.07;;
68475;SDS011;55464;48.266;14.188;2022-12-29T15:22:42;14.52;;;8.02;;
68475;SDS011;55464;48.266;14.188;2022-12-29T15:25:28;17.52;;;7.95;;
68475;SDS011;55464;48.266;14.188;2022-12-29T15:28:00;15.18;;;6.82;;
68475;SDS011;55464;48.266;14.188;2022-12-29T15:30:27;15.43;;;8.43;;
68475;SDS011;55464;48.266;14.188;2022-12-29T15:32:53;14.85;;;7.85;;
68475;SDS011;55464;48.266;14.188;2022-12-29T15:37:49;10.43;;;6.97;;
68475;SDS011;55464;48.266;14.188;2022-12-29T15:40:22;14.00;;;7.15;;
68475;SDS011;55464;48.266;14.188;2022-12-29T15:45:41;14.85;;;7.50;;
68475;SDS011;55464;48.266;14.188;2022-12-29T15:48:10;14.10;;;7.47;;
68475;SDS011;55464;48.266;14.188;2022-12-29T15:50:44;13.85;;;8.13;;
68475;SDS011;55464;48.266;14.188;2022-12-29T15:53:12;13.00;;;8.27;;
68475;SDS011;55464;48.266;14.188;2022-12-29T15:55:49;12.85;;;6.85;;
68475;SDS011;55464;48.266;14.188;2022-12-29T15:58:26;16.67;;;7.80;;
68475;SDS011;55464;48.266;14.188;2022-12-29T16:00:58;12.75;;;7.13;;
68475;SDS011;55464;48.266;14.188;2022-12-29T16:03:27;16.90;;;8.15;;
68475;SDS011;55464;48.266;14.188;2022-12-29T16:08:54;13.57;;;6.18;;
68475;SDS011;55464;48.266;14.188;2022-12-29T16:11:22;12.43;;;6.93;;
68475;SDS011;55464;48.266;14.188;2022-12-29T16:13:49;9.10;;;6.10;;
68475;SDS011;55464;48.266;14.188;2022-12-29T16:16:21;14.52;;;7.32;;
68475;SDS011;55464;48.266;14.188;2022-12-29T16:18:56;12.32;;;7.70;;
68475;SDS011;55464;48.266;14.188;2022-12-29T16:21:24;11.57;;;6.75;;
68475;SDS011;55464;48.266;14.188;2022-12-29T16:23:53;13.82;;;7.40;;
68475;SDS011;55464;48.266;14.188;2022-12-29T16:26:23;14.75;;;8.18;;
68475;SDS011;55464;48.266;14.188;2022-12-29T16:28:50;12.70;;;7.40;;
68475;SDS011;55464;48.266;14.188;2022-12-29T16:31:22;11.88;;;7.00;;
68475;SDS011;55464;48.266;14.188;2022-12-29T16:36:25;11.02;;;7.47;;
68475;SDS011;55464;48.266;14.188;2022-12-29T16:41:47;13.98;;;7.57;;
68475;SDS011;55464;48.266;14.188;2022-12-29T16:44:18;11.52;;;7.30;;
68475;SDS011;55464;48.266;14.188;2022-12-29T16:49:27;15.27;;;7.68;;
68475;SDS011;55464;48.266;14.188;2022-12-29T16:51:55;10.90;;;7.13;;
68475;SDS011;55464;48.266;14.188;2022-12-29T16:54:23;9.75;;;6.65;;
68475;SDS011;55464;48.266;14.188;2022-12-29T16:56:53;11.40;;;6.90;;
68475;SDS011;55464;48.266;14.188;2022-12-29T17:02:15;13.43;;;8.60;;
68475;SDS011;55464;48.266;14.188;2022-12-29T17:04:44;16.85;;;8.95;;
68475;SDS011;55464;48.266;14.188;2022-12-29T17:07:22;16.20;;;8.02;;
68475;SDS011;55464;48.266;14.188;2022-12-29T17:09:49;12.25;;;7.25;;
68475;SDS011;55464;48.266;14.188;2022-12-29T17:12:18;11.60;;;6.63;;
68475;SDS011;55464;48.266;14.188;2022-12-29T17:20:19;13.23;;;7.25;;
68475;SDS011;55464;48.266;14.188;2022-12-29T17:22:47;10.30;;;6.47;;
68475;SDS011;55464;48.266;14.188;2022-12-29T17:25:16;14.25;;;6.80;;
68475;SDS011;55464;48.266;14.188;2022-12-29T17:28:03;13.53;;;5.63;;
68475;SDS011;55464;48.266;14.188;2022-12-29T17:31:02;10.82;;;6.13;;
68475;SDS011;55464;48.266;14.188;2022-12-29T17:33:33;12.75;;;5.97;;
68475;SDS011;55464;48.266;14.188;2022-12-29T17:36:02;10.35;;;5.72;;
68475;SDS011;55464;48.266;14.188;2022-12-29T17:38:29;12.25;;;5.85;;